Flight Track Log - Related Links

Times and Time Zones

All times are in EDT time to prevent confusion due to time zone crossing. See the CPT7773 flight status page for this flight to view local times or setup timezone preferences in your user account.

Time Position Orientation Groundspeed Altitude Reporting Facility
EDT Latitude Longitude Course Direction KTS MPH feet Rate Location/Type
Fri 07:41:55 PM 44.5347 -108.9697 120° Southeast 143 165 6,300  Level Salt Lake Center
Fri 07:42:57 PM 44.5281 -108.9278 103° East 115 132 7,200 823 Climbing Salt Lake Center
Fri 07:43:59 PM 44.5200 -108.8844 105° East 114 131 8,000 726 Climbing Salt Lake Center
Fri 07:45:01 PM 44.5139 -108.8383 101° East 117 135 8,700 774 Climbing Salt Lake Center
Fri 07:46:03 PM 44.5064 -108.7900 102° East 122 140 9,600 823 Climbing Salt Lake Center
Fri 07:47:00 PM 44.3770 -108.7043 120° Southeast  Level FlightAware Approximate
Fri 07:47:05 PM 44.4844 -108.7533 130° Southeast 125 144 10,400  Level Salt Lake Center
Fri 07:48:07 PM 44.4550 -108.7108 134° Southeast 126 145 11,000 242 Climbing Salt Lake Center
Fri 07:49:09 PM 44.4275 -108.6678 132° Southeast 134 154 10,900  Descending Salt Lake Center
Fri 07:50:11 PM 44.4011 -108.6236 130° Southeast 142 163 11,000 48 Climbing Salt Lake Center
Fri 07:51:13 PM 44.3756 -108.5861 134° Southeast 141 162 11,000  Level Salt Lake Center
Fri 07:52:15 PM 44.3483 -108.5447 133° Southeast 141 162 11,000  Level Salt Lake Center
Fri 07:53:17 PM 44.3214 -108.5039 133° Southeast 142 163 11,000  Level Salt Lake Center
Fri 07:54:19 PM 44.2892 -108.4519 131° Southeast 145 167 11,000  Level Salt Lake Center
Fri 07:55:21 PM 44.2622 -108.4092 131° Southeast 147 169 11,000  Level Salt Lake Center
Fri 07:56:23 PM 44.2372 -108.3697 131° Southeast 143 165 11,000  Level Salt Lake Center
Fri 07:57:25 PM 44.2111 -108.3300 133° Southeast 141 162 11,000  Level Salt Lake Center
Fri 07:58:27 PM 44.1825 -108.2869 133° Southeast 144 166 11,000  Level Salt Lake Center
Fri 07:59:29 PM 44.1486 -108.2361 133° Southeast 148 170 11,000  Level Salt Lake Center
Fri 08:00:31 PM 44.1208 -108.1936 132° Southeast 148 170 11,000  Level Salt Lake Center
Fri 08:01:33 PM 44.0931 -108.1511 132° Southeast 149 171 11,000 48 Level Salt Lake Center
Fri 08:02:35 PM 44.0647 -108.1081 132° Southeast 149 171 11,100 48 Climbing Salt Lake Center
Fri 08:03:37 PM 44.0383 -108.0667 132° Southeast 148 170 11,100 -48 Level Salt Lake Center
Fri 08:04:39 PM 44.0111 -108.0247 132° Southeast 147 169 11,000 -48 Descending Salt Lake Center
Fri 08:05:41 PM 43.9786 -107.9767 133° Southeast 145 167 11,000  Level Salt Lake Center
Fri 08:06:43 PM 43.9508 -107.9350 133° Southeast 145 167 11,000  Level Salt Lake Center
Fri 08:07:45 PM 43.9250 -107.8853 126° Southeast 150 173 11,000  Level Salt Lake Center
Fri 08:08:47 PM 43.8983 -107.8314 124° Southeast 158 182 11,000  Level Salt Lake Center
Fri 08:09:49 PM 43.8719 -107.7775 124° Southeast 163 188 11,000  Level Salt Lake Center
Fri 08:10:51 PM 43.8444 -107.7228 125° Southeast 169 194 11,000 -48 Level Salt Lake Center
Fri 08:11:53 PM 43.8117 -107.6600 126° Southeast 169 194 10,900  Descending Salt Lake Center
Fri 08:12:55 PM 43.7872 -107.6108 125° Southeast 165 190 11,000 48 Climbing Salt Lake Center
Fri 08:13:57 PM 43.7628 -107.5617 125° Southeast 159 183 11,000 -48 Level Salt Lake Center
Fri 08:14:59 PM 43.7342 -107.5103 128° Southeast 162 186 10,900 -97 Descending Salt Lake Center
Fri 08:16:01 PM 43.7081 -107.4597 126° Southeast 163 188 10,800  Descending Salt Lake Center
Fri 08:17:03 PM 43.6850 -107.4106 123° Southeast 159 183 10,900 48 Climbing Salt Lake Center
Fri 08:18:05 PM 43.6536 -107.3519 126° Southeast 158 182 10,900  Level Salt Lake Center
Fri 08:19:06 PM 43.6272 -107.3006 125° Southeast 160 184 10,900  Level Salt Lake Center
Fri 08:20:08 PM 43.6022 -107.2528 126° Southeast 159 183 10,900  Level Salt Lake Center
Fri 08:21:10 PM 43.5753 -107.2008 126° Southeast 161 185 10,900  Level Salt Lake Center
Fri 08:22:12 PM 43.5472 -107.1489 127° Southeast 165 190 10,900 -48 Level Salt Lake Center
Fri 08:23:14 PM 43.5186 -107.0958 127° Southeast 168 193 10,800 -48 Descending Salt Lake Center
Fri 08:24:16 PM 43.4853 -107.0303 125° Southeast 172 198 10,800 48 Level Salt Lake Center
Fri 08:25:18 PM 43.4575 -106.9769 126° Southeast 172 198 10,900 145 Climbing Salt Lake Center
Fri 08:26:20 PM 43.4314 -106.9256 125° Southeast 170 196 11,100 48 Climbing Salt Lake Center
Fri 08:27:22 PM 43.3986 -106.8686 128° Southeast 171 197 11,000 -146 Descending Salt Lake Center
Fri 08:28:23 PM 43.3586 -106.8383 151° Southeast 168 193 10,800 -439 Descending Salt Lake Center
Fri 08:29:25 PM 43.3097 -106.7978 149° Southeast 180 207 10,100 -581 Descending Salt Lake Center
Fri 08:30:27 PM 43.2625 -106.7636 152° Southeast 192 221 9,600 -339 Descending Salt Lake Center
Fri 08:31:29 PM 43.2172 -106.7244 148° Southeast 180 207 9,400 -435 Descending Salt Lake Center
Fri 08:32:31 PM 43.1789 -106.6864 144° Southeast 176 203 8,700 -593 Descending Salt Lake Center
Fri 08:34:31 PM 43.0931 -106.6167 149° Southeast 182 209 7,600 -429 Descending Denver Center
Fri 08:35:33 PM 43.0464 -106.5797 150° Southeast 181 208 7,400 -194 Descending Denver Center

Login

Don't have an account? Register now (free) for customized features, flight alerts, and more!